F/V Fleur Des Vagues — FPEJ — position and weather

sailwx.info

Track history (hours):
 
Tides and Currents Weather Stations Pressure Air Temp Water Temp Dewpoint Dewpoint Depression Visibility Wind Speed Wind Dir Waves Ship Positions

F/V Fleur Des Vagues

Last reported at 2017-May-22 19:30 UTC. Time now 2017-May-22 19:33 UTC.
Position N 46°30' W 001°47'.

Length 16 m.

Type: Fishing. MMSI: 227893000.

Date/timePositionNaut miles runAvg speedWind from/ knotsBaromVisibWave heightAir tempDewpointWater temp
2017-May-22 19:30N 46°30' W 001°47'0 0.0
2017-May-22 18:59N 46°30' W 001°47'0 0.0
2017-May-22 18:29N 46°30' W 001°47'0 0.0
2017-May-22 17:59N 46°30' W 001°47'0 0.0
2017-May-22 17:30N 46°30' W 001°47'0 0.0
2017-May-22 16:59N 46°30' W 001°47'0 0.0
2017-May-22 16:29N 46°30' W 001°47'0 0.0
2017-May-22 16:00N 46°30' W 001°47'0 0.0
2017-May-22 15:30N 46°30' W 001°47'0 0.0
2017-May-22 15:00N 46°30' W 001°47'0 0.0
2017-May-22 13:59N 46°30' W 001°47'0 0.0
2017-May-22 13:30N 46°30' W 001°47'0 0.0
2017-May-22 13:00N 46°30' W 001°47'0 0.0
2017-May-22 12:30N 46°30' W 001°47'0 0.0
2017-May-22 11:59N 46°30' W 001°47'1 1.8
2017-May-22 11:30N 46°29' W 001°47'4 8.7
2017-May-22 11:00N 46°26' W 001°51'4 9.0
2017-May-22 10:30N 46°23' W 001°56'3 5.3
2017-May-22 10:00N 46°24' W 001°60'3 5.9
2017-May-22 09:30N 46°21' W 001°59'4 8.1
2017-May-22 09:00N 46°24' W 002°01'2 4.5
2017-May-22 08:30N 46°23' W 001°59'3 6.7
2017-May-22 08:00N 46°20' W 001°56'1 2.1
2017-May-22 07:30N 46°21' W 001°54'1 2.2
2017-May-22 06:58N 46°21' W 001°53'1 1.2
2017-May-22 06:30N 46°21' W 001°53'1 2.4
2017-May-22 06:01N 46°20' W 001°54'2 3.3
2017-May-22 05:31N 46°19' W 001°53'3 6.3
2017-May-22 05:00N 46°17' W 001°49'0 0.5
2017-May-22 04:30N 46°17' W 001°48'0 0.4
2017-May-22 03:59N 46°17' W 001°48'0 0.2
2017-May-22 03:30N 46°17' W 001°48'0 0.4
2017-May-22 03:00N 46°17' W 001°48'0 0.7
2017-May-22 02:31N 46°17' W 001°47'0 0.4
2017-May-22 01:58N 46°17' W 001°47'1 1.4
2017-May-22 01:30N 46°18' W 001°48'4 7.8
2017-May-22 01:01N 46°22' W 001°47'4 8.7
2017-May-22 00:30N 46°26' W 001°47'4 8.1
2017-May-22 00:01N 46°30' W 001°48'0 0.6
2017-May-21 23:30N 46°30' W 001°47'0 0.0
2017-May-21 23:00N 46°30' W 001°47'0 0.0
2017-May-21 22:30N 46°30' W 001°47'0 0.0
2017-May-21 22:00N 46°30' W 001°47'0 0.0
2017-May-21 21:30N 46°30' W 001°47'0 0.0
2017-May-21 21:00N 46°30' W 001°47'0 0.0
2017-May-21 20:30N 46°30' W 001°47'0 0.0
2017-May-21 20:00N 46°30' W 001°47'0 0.0
2017-May-21 19:30N 46°30' W 001°47'0 0.0
2017-May-21 19:00N 46°30' W 001°47'0 0.0
2017-May-21 18:30N 46°30' W 001°47'0 0.0
2017-May-21 18:00N 46°30' W 001°47'0 0.0
2017-May-21 17:30N 46°30' W 001°47'0 0.0
2017-May-21 17:00N 46°30' W 001°47'0 0.0
2017-May-21 16:30N 46°30' W 001°47'0 0.0
2017-May-21 16:00N 46°30' W 001°47'0 0.0
2017-May-21 15:30N 46°30' W 001°47'0 0.0
2017-May-21 15:00N 46°30' W 001°47'0 0.0
2017-May-21 14:30N 46°30' W 001°47'0 0.0
2017-May-21 13:30N 46°30' W 001°47'0 0.0
2017-May-21 13:00N 46°30' W 001°47'2 4.3
2017-May-21 12:30N 46°28' W 001°48'4 8.8
2017-May-21 12:00N 46°24' W 001°51'4 8.1
2017-May-21 11:30N 46°21' W 001°54'2 3.6
2017-May-21 11:00N 46°21' W 001°52'4 8.8
2017-May-21 10:30N 46°17' W 001°49'1 1.7
2017-May-21 10:00N 46°17' W 001°48'1 1.4
2017-May-21 09:30N 46°18' W 001°48'1 1.2
2017-May-21 08:59N 46°17' W 001°48'0 0.5
2017-May-21 08:28N 46°17' W 001°48'0 0.8
2017-May-21 08:01N 46°17' W 001°49'0 0.2
2017-May-21 07:25N 46°17' W 001°49'0 0.7
2017-May-21 07:00N 46°17' W 001°49'0 0.4
2017-May-21 06:29N 46°17' W 001°49'0 0.3
2017-May-21 05:56N 46°17' W 001°49'0 0.2
2017-May-21 05:29N 46°17' W 001°49'1 2.2
2017-May-21 04:58N 46°17' W 001°48'1 1.3
2017-May-21 04:30N 46°17' W 001°47'1 1.3
2017-May-21 04:00N 46°17' W 001°48'1 1.2
2017-May-21 03:28N 46°17' W 001°47'1 1.3
2017-May-21 03:00N 46°17' W 001°47'0 0.6
2017-May-21 02:30N 46°17' W 001°47'0 0.3
2017-May-21 02:00N 46°17' W 001°47'1 1.2
2017-May-21 01:30N 46°18' W 001°47'4 8.0
2017-May-21 01:00N 46°22' W 001°47'4 8.7
2017-May-21 00:30N 46°26' W 001°47'4 7.3
2017-May-21 00:00N 46°30' W 001°47'0 0.2
2017-May-20 23:29N 46°30' W 001°47'0 0.0
2017-May-20 22:59N 46°30' W 001°47'0 0.0
2017-May-20 22:29N 46°30' W 001°47'0 0.0
2017-May-20 21:59N 46°30' W 001°47'0 0.0
2017-May-20 21:29N 46°30' W 001°47'0 0.0
2017-May-20 20:59N 46°30' W 001°47'0 0.0
2017-May-20 20:29N 46°30' W 001°47'0 0.0
2017-May-20 19:59N 46°30' W 001°47'0 0.0
2017-May-20 19:29N 46°30' W 001°47'0 0.0
2017-May-20 18:59N 46°30' W 001°47'0 0.0
2017-May-20 18:29N 46°30' W 001°47'0 0.0
2017-May-20 17:59N 46°30' W 001°47'0 0.0
2017-May-20 17:29N 46°30' W 001°47'0 0.0
2017-May-20 16:59N 46°30' W 001°47'0 0.0
2017-May-20 16:29N 46°30' W 001°47'0 0.0
2017-May-20 15:59N 46°30' W 001°47'0 0.0
2017-May-20 15:29N 46°30' W 001°47'0 0.0
2017-May-20 14:59N 46°30' W 001°47'0 0.0
2017-May-20 14:29N 46°30' W 001°47'0 0.0
2017-May-20 13:29N 46°30' W 001°47'0 0.0
2017-May-20 12:59N 46°30' W 001°47'0 0.0
2017-May-20 12:29N 46°30' W 001°47'0 0.0
2017-May-20 11:59N 46°30' W 001°47'0 0.0
2017-May-20 11:29N 46°30' W 001°47'1 1.7
2017-May-20 11:00N 46°29' W 001°47'4 8.4
2017-May-20 10:31N 46°25' W 001°47'4 8.3
2017-May-20 10:00N 46°21' W 001°48'4 7.2
2017-May-20 09:30N 46°17' W 001°48'1 1.6
2017-May-20 09:00N 46°17' W 001°49'0 0.3
2017-May-20 08:31N 46°17' W 001°49'0 0.2
2017-May-20 08:01N 46°17' W 001°49'0 0.8
2017-May-20 07:30N 46°17' W 001°49'0 0.7
2017-May-20 06:59N 46°17' W 001°48'0 0.7
2017-May-20 06:30N 46°17' W 001°48'0 0.2
2017-May-20 05:58N 46°17' W 001°48'0 1.0
2017-May-20 05:30N 46°18' W 001°48'1 1.8
2017-May-20 05:00N 46°17' W 001°47'1 1.1
2017-May-20 04:29N 46°17' W 001°48'0 0.8
2017-May-20 04:01N 46°17' W 001°48'1 1.1
2017-May-20 03:30N 46°17' W 001°47'1 1.6
2017-May-20 03:00N 46°18' W 001°48'1 1.3
2017-May-20 02:30N 46°17' W 001°47'0 0.2
2017-May-20 02:00N 46°17' W 001°47'1 1.8
2017-May-20 01:30N 46°18' W 001°48'4 8.5
2017-May-20 01:00N 46°22' W 001°47'4 8.7
2017-May-20 00:30N 46°27' W 001°47'3 6.3
2017-May-19 23:59N 46°30' W 001°47'0 0.0
2017-May-19 23:29N 46°30' W 001°47'0 0.0
2017-May-19 22:59N 46°30' W 001°47'0 0.0
2017-May-19 22:29N 46°30' W 001°47'0 0.0
2017-May-19 21:59N 46°30' W 001°47'0 0.0
2017-May-19 21:29N 46°30' W 001°47'0 0.0
2017-May-19 20:59N 46°30' W 001°47'0 0.0
2017-May-19 20:29N 46°30' W 001°47'0 0.0
2017-May-19 19:59N 46°30' W 001°47'0 0.0
2017-May-19 19:29N 46°30' W 001°47'0 0.0
2017-May-19 18:59N 46°30' W 001°47'0 0.0
2017-May-19 18:29N 46°30' W 001°47'0 0.0
2017-May-19 17:59N 46°30' W 001°47'0 0.0
2017-May-19 17:29N 46°30' W 001°47'0 0.0
2017-May-19 16:59N 46°30' W 001°47'0 0.0
2017-May-19 16:29N 46°30' W 001°47'0 0.0
2017-May-19 15:59N 46°30' W 001°47'0 0.0
2017-May-19 15:29N 46°30' W 001°47'0 0.0
2017-May-19 14:59N 46°30' W 001°47'0 0.0
2017-May-19 13:59N 46°30' W 001°47'0 0.0
2017-May-19 13:29N 46°30' W 001°47'0 0.0
2017-May-19 12:59N 46°30' W 001°47'0 0.0
2017-May-19 12:29N 46°30' W 001°47'0 0.4
2017-May-19 11:58N 46°30' W 001°47'1 2.8
2017-May-19 11:30N 46°29' W 001°47'4 8.3
2017-May-19 11:00N 46°25' W 001°48'4 8.1
2017-May-19 10:30N 46°20' W 001°49'3 6.4
2017-May-19 10:01N 46°17' W 001°49'1 2.4
2017-May-19 09:30N 46°17' W 001°48'0 0.9
2017-May-19 09:01N 46°17' W 001°47'2 4.3
2017-May-19 08:30N 46°17' W 001°50'1 1.9
2017-May-19 08:01N 46°17' W 001°49'1 1.5
2017-May-19 07:29N 46°17' W 001°48'1 1.2
2017-May-19 07:00N 46°17' W 001°47'2 4.2
2017-May-19 06:30N 46°17' W 001°50'1 1.6
2017-May-19 06:00N 46°17' W 001°49'13 1.4
2017-May-18 21:00N 46°30' W 001°47'0 0.0
2017-May-18 20:31N 46°30' W 001°47'0 0.0
2017-May-18 20:00N 46°30' W 001°47'0 0.0
2017-May-18 19:30N 46°30' W 001°47'0 0.0
2017-May-18 19:00N 46°30' W 001°47'0 0.0
2017-May-18 18:30N 46°30' W 001°47'0 0.0
2017-May-18 18:00N 46°30' W 001°47'0 0.0
2017-May-18 17:31N 46°30' W 001°47'0 0.0
2017-May-18 16:54N 46°30' W 001°47'0 0.0
2017-May-18 16:30N 46°30' W 001°47'0 0.0
2017-May-18 16:00N 46°30' W 001°47'0 0.0
2017-May-18 15:30N 46°30' W 001°47'0 0.0
2017-May-18 15:00N 46°30' W 001°47'0 0.0
2017-May-18 14:00N 46°30' W 001°47'0 0.0
2017-May-18 13:30N 46°30' W 001°47'9 0.9
2017-May-18 03:19N 46°21' W 001°47'3 8.5
2017-May-18 03:00N 46°23' W 001°47'4 8.5
2017-May-18 02:30N 46°28' W 001°47'2 4.6
2017-May-18 01:59N 46°30' W 001°47'0 0.0
2017-May-18 01:29N 46°30' W 001°47'0 0.0
2017-May-18 00:59N 46°30' W 001°47'0 0.0
2017-May-18 00:29N 46°30' W 001°47'0 0.0
2017-May-17 23:59N 46°30' W 001°47'0 0.0
2017-May-17 23:29N 46°30' W 001°47'0 0.0
2017-May-17 22:59N 46°30' W 001°47'0 0.0
2017-May-17 22:29N 46°30' W 001°47'0 0.0
2017-May-17 21:59N 46°30' W 001°47'0 0.0
2017-May-17 21:29N 46°30' W 001°47'0 0.0
2017-May-17 20:59N 46°30' W 001°47'0 0.0
2017-May-17 20:29N 46°30' W 001°47'0 0.0
2017-May-17 19:59N 46°30' W 001°47'0 0.0
2017-May-17 19:29N 46°30' W 001°47'0 0.0
2017-May-17 18:59N 46°30' W 001°47'0 0.0
2017-May-17 18:23N 46°30' W 001°47'0 0.0
2017-May-17 17:59N 46°30' W 001°47'0 0.0
2017-May-17 17:29N 46°30' W 001°47'0 0.0
2017-May-17 16:59N 46°30' W 001°47'0 0.0
2017-May-17 16:29N 46°30' W 001°47'0 0.0
2017-May-17 15:59N 46°30' W 001°47'0 0.4
2017-May-17 15:30N 46°30' W 001°47'4 7.2
2017-May-17 15:00N 46°26' W 001°47'8 8.0
2017-May-17 14:00N 46°18' W 001°47'3 5.5
2017-May-17 13:30N 46°17' W 001°51'2 3.6
2017-May-17 13:00N 46°17' W 001°48'0 0.4
2017-May-17 12:30N 46°17' W 001°48'0 0.5
2017-May-17 12:00N 46°17' W 001°48'1 1.1
2017-May-17 11:29N 46°17' W 001°48'0 0.4
2017-May-17 10:59N 46°17' W 001°47'1 1.2
2017-May-17 10:29N 46°17' W 001°48'0 1.0
2017-May-17 10:00N 46°18' W 001°48'1 1.2
2017-May-17 09:30N 46°17' W 001°47'1 1.1
2017-May-17 09:00N 46°17' W 001°47'0 0.4
2017-May-17 08:30N 46°17' W 001°47'1 1.1
2017-May-17 08:00N 46°17' W 001°47'1 1.2
2017-May-17 07:30N 46°18' W 001°48'1 1.2
2017-May-17 07:00N 46°18' W 001°48'0 0.2
2017-May-17 06:30N 46°18' W 001°48'1 1.0
2017-May-17 05:59N 46°17' W 001°48'1 1.3
2017-May-17 05:29N 46°17' W 001°48'1 1.1
2017-May-17 04:59N 46°17' W 001°48'0 0.8
2017-May-17 04:29N 46°17' W 001°49'1 1.2
2017-May-17 03:59N 46°17' W 001°48'0 0.7
2017-May-17 03:29N 46°16' W 001°48'1 1.3
2017-May-17 02:59N 46°17' W 001°49'0 0.6
2017-May-17 02:29N 46°17' W 001°49'0 0.3
2017-May-17 01:59N 46°17' W 001°49'1 1.4
2017-May-17 01:30N 46°18' W 001°49'4 8.0
2017-May-17 01:00N 46°22' W 001°48'4 8.8
2017-May-17 00:30N 46°26' W 001°48'4 7.8
2017-May-17 00:00N 46°30' W 001°47'0 0.5
2017-May-16 23:29N 46°30' W 001°47'0 0.0
2017-May-16 22:59N 46°30' W 001°47'0 0.0
2017-May-16 22:29N 46°30' W 001°47'0 0.0
2017-May-16 21:59N 46°30' W 001°47'0 0.0
2017-May-16 21:29N 46°30' W 001°47'0 0.0
2017-May-16 20:59N 46°30' W 001°47'0 0.0
2017-May-16 20:29N 46°30' W 001°47'0 0.0
2017-May-16 19:59N 46°30' W 001°47'0 0.0
2017-May-16 19:29N 46°30' W 001°47'0 0.0
2017-May-16 18:59N 46°30' W 001°47'0 0.0
2017-May-16 18:29N 46°30' W 001°47'0 0.0
2017-May-16 17:59N 46°30' W 001°47'0 0.0
2017-May-16 17:29N 46°30' W 001°47'0 0.0
2017-May-16 16:59N 46°30' W 001°47'0 0.0
2017-May-16 16:29N 46°30' W 001°47'0 0.0
2017-May-16 15:59N 46°30' W 001°47'0 0.0
2017-May-16 15:29N 46°30' W 001°47'0 0.0
2017-May-16 14:59N 46°30' W 001°47'0 0.0
2017-May-16 14:29N 46°30' W 001°47'2 1.7
2017-May-16 13:30N 46°28' W 001°47'5 9.1
2017-May-16 13:00N 46°24' W 001°48'4 9.0
2017-May-16 12:30N 46°19' W 001°49'3 5.3
2017-May-16 12:00N 46°17' W 001°48'1 1.2
2017-May-16 11:30N 46°17' W 001°48'1 1.1
2017-May-16 11:00N 46°17' W 001°48'1 1.6
2017-May-16 10:30N 46°18' W 001°48'0 0.9
2017-May-16 10:00N 46°17' W 001°48'1 1.9
2017-May-16 09:30N 46°18' W 001°49'0 0.8
2017-May-16 09:00N 46°18' W 001°48'1 1.4
2017-May-16 08:30N 46°17' W 001°48'0 0.3
2017-May-16 08:00N 46°17' W 001°48'1 1.9
2017-May-16 07:30N 46°18' W 001°49'0 0.9
2017-May-16 06:59N 46°18' W 001°49'1 1.7
2017-May-16 06:30N 46°18' W 001°49'0 0.9
2017-May-16 06:00N 46°17' W 001°48'0 0.7
2017-May-16 05:31N 46°18' W 001°49'1 1.9
2017-May-16 05:00N 46°18' W 001°49'1 2.1
2017-May-16 04:30N 46°17' W 001°49'0 0.3
2017-May-16 03:58N 46°17' W 001°49'1 1.7
2017-May-16 03:28N 46°18' W 001°49'0 0.2
2017-May-16 03:00N 46°18' W 001°49'2 3.4
2017-May-16 02:30N 46°17' W 001°47'1 1.6
2017-May-16 02:01N 46°18' W 001°48'1 1.8
2017-May-16 01:31N 46°19' W 001°48'3 6.2
2017-May-16 01:00N 46°22' W 001°48'4 8.5
2017-May-16 00:30N 46°26' W 001°48'4 7.8
2017-May-16 00:00N 46°30' W 001°48'0 0.5
2017-May-15 23:29N 46°30' W 001°47'0 0.0
2017-May-15 22:59N 46°30' W 001°47'0 0.0
2017-May-15 22:29N 46°30' W 001°47'0 0.0
2017-May-15 21:59N 46°30' W 001°47'0 0.0
2017-May-15 21:29N 46°30' W 001°47'0 0.0
2017-May-15 20:56N 46°30' W 001°47'0 0.0
2017-May-15 20:29N 46°30' W 001°47'0 0.0
2017-May-15 19:59N 46°30' W 001°47'0 0.0
2017-May-15 19:29N 46°30' W 001°47'0 0.0
2017-May-15 18:59N 46°30' W 001°47'0 0.0
2017-May-15 18:29N 46°30' W 001°47'0 0.0
2017-May-15 17:59N 46°30' W 001°47'0 0.0
2017-May-15 17:29N 46°30' W 001°47'0 0.0
2017-May-15 16:59N 46°30' W 001°47'0 0.0
2017-May-15 16:29N 46°30' W 001°47'0 0.0
2017-May-15 15:59N 46°30' W 001°47'0 0.0
2017-May-15 15:29N 46°30' W 001°47'0 0.0
2017-May-15 14:59N 46°30' W 001°47'0 0.0
2017-May-15 13:59N 46°30' W 001°47'0 0.0
2017-May-15 13:28N 46°30' W 001°47'0 0.8
2017-May-15 13:01N 46°30' W 001°48'4 8.5
2017-May-15 12:31N 46°26' W 001°48'5 9.2
2017-May-15 12:01N 46°21' W 001°49'4 8.3
2017-May-15 11:30N 46°17' W 001°49'1 1.1
2017-May-15 11:00N 46°17' W 001°48'0 0.5
2017-May-15 10:30N 46°18' W 001°48'0 0.6
2017-May-15 10:00N 46°18' W 001°48'1 2.2
2017-May-15 09:30N 46°18' W 001°49'1 1.4
2017-May-15 08:59N 46°18' W 001°50'1 1.5
2017-May-15 08:29N 46°19' W 001°50'0 0.4
2017-May-15 07:59N 46°19' W 001°50'1 2.0
2017-May-15 07:30N 46°18' W 001°50'1 1.9
2017-May-15 07:00N 46°17' W 001°49'0 0.6
2017-May-15 06:30N 46°17' W 001°49'1 2.3
2017-May-15 06:01N 46°18' W 001°49'1 1.4
2017-May-15 05:30N 46°19' W 001°50'3 5.2
2017-May-15 05:00N 46°17' W 001°48'1 1.7
2017-May-15 04:30N 46°17' W 001°49'1 1.5
2017-May-15 04:00N 46°18' W 001°49'1 1.8
2017-May-15 03:30N 46°19' W 001°50'1 1.7
2017-May-15 02:58N 46°18' W 001°49'1 1.4
2017-May-15 02:29N 46°18' W 001°48'1 2.3
2017-May-15 02:00N 46°19' W 001°49'1 2.0
2017-May-15 01:29N 46°19' W 001°50'3 6.1
2017-May-15 01:00N 46°22' W 001°49'4 8.2
2017-May-15 00:30N 46°26' W 001°48'4 7.2
2017-May-15 00:00N 46°30' W 001°47'0 0.3
2017-May-14 23:28N 46°30' W 001°47'0 0.0
2017-May-14 22:58N 46°30' W 001°47'0 0.0
2017-May-14 22:28N 46°30' W 001°47'0 0.0
2017-May-14 21:58N 46°30' W 001°47'0 0.0
2017-May-14 21:28N 46°30' W 001°47'0 0.0
2017-May-14 20:58N 46°30' W 001°47'0 0.0
2017-May-14 20:28N 46°30' W 001°47'0 0.0
2017-May-14 19:58N 46°30' W 001°47'0 0.0
2017-May-14 19:28N 46°30' W 001°47'0 0.0
2017-May-14 18:58N 46°30' W 001°47'0 0.0
2017-May-14 18:28N 46°30' W 001°47'0 0.0
2017-May-14 17:58N 46°30' W 001°47'0 0.0
2017-May-14 17:28N 46°30' W 001°47'0 0.0
2017-May-14 16:58N 46°30' W 001°47'0 0.0
2017-May-14 16:28N 46°30' W 001°47'0 0.0
2017-May-14 15:58N 46°30' W 001°47'0 0.0
2017-May-14 15:28N 46°30' W 001°47'0 0.0
2017-May-14 14:58N 46°30' W 001°47'0 0.0
2017-May-14 14:28N 46°30' W 001°47'0 0.0
2017-May-14 13:30N 46°30' W 001°47'4 7.6
2017-May-14 13:00N 46°26' W 001°48'5 9.1
2017-May-14 12:30N 46°22' W 001°49'4 8.1
2017-May-14 12:00N 46°18' W 001°48'0 0.8
2017-May-14 11:30N 46°17' W 001°49'2 3.8
2017-May-14 11:00N 46°19' W 001°50'2 3.0
2017-May-14 10:30N 46°18' W 001°49'2 3.5
2017-May-14 10:00N 46°19' W 001°50'1 2.1
2017-May-14 09:30N 46°18' W 001°50'1 2.2
2017-May-14 09:00N 46°17' W 001°49'1 2.3
2017-May-14 08:30N 46°16' W 001°48'1 2.1
2017-May-14 08:00N 46°15' W 001°48'0 0.4
2017-May-14 07:30N 46°15' W 001°48'1 1.5
2017-May-14 06:59N 46°16' W 001°48'1 1.6
2017-May-14 06:23N 46°17' W 001°49'1 1.3
2017-May-14 06:00N 46°17' W 001°49'1 1.5
2017-May-14 05:30N 46°18' W 001°50'1 1.6
2017-May-14 04:59N 46°19' W 001°50'1 1.2
2017-May-14 04:30N 46°19' W 001°50'3 6.8
2017-May-14 04:00N 46°16' W 001°48'0 0.9
2017-May-14 03:30N 46°16' W 001°48'1 2.1
2017-May-14 03:00N 46°17' W 001°48'1 1.9
2017-May-14 02:30N 46°18' W 001°49'1 1.9
2017-May-14 02:00N 46°18' W 001°49'1 1.7
2017-May-14 01:30N 46°19' W 001°50'4 7.6
2017-May-14 01:00N 46°23' W 001°49'4 8.0
2017-May-14 00:30N 46°27' W 001°48'3 6.1
2017-May-13 23:59N 46°30' W 001°47'0 0.0
2017-May-13 23:29N 46°30' W 001°47'0 0.0
2017-May-13 22:59N 46°30' W 001°47'0 0.0
2017-May-13 22:29N 46°30' W 001°47'0 0.0
2017-May-13 21:59N 46°30' W 001°47'0 0.0
2017-May-13 21:29N 46°30' W 001°47'0 0.0
2017-May-13 20:59N 46°30' W 001°47'0 0.0
2017-May-13 20:29N 46°30' W 001°47'0 0.0
2017-May-13 19:59N 46°30' W 001°47'0 0.0
2017-May-13 19:29N 46°30' W 001°47'0 0.0
2017-May-13 18:59N 46°30' W 001°47'0 0.0
2017-May-13 18:29N 46°30' W 001°47'0 0.0
2017-May-13 17:59N 46°30' W 001°47'0 0.0
2017-May-13 17:29N 46°30' W 001°47'0 0.0
2017-May-13 16:59N 46°30' W 001°47'0 0.0
2017-May-13 16:29N 46°30' W 001°47'0 0.0
2017-May-13 15:59N 46°30' W 001°47'0 0.0
2017-May-13 15:29N 46°30' W 001°47'0 0.0
2017-May-13 14:59N 46°30' W 001°47'0 0.0
2017-May-13 14:29N 46°30' W 001°47'0 0.4
2017-May-13 13:30N 46°30' W 001°48'4 8.6
2017-May-13 13:00N 46°25' W 001°47'5 9.1
2017-May-13 12:30N 46°21' W 001°47'5 9.3
2017-May-13 12:00N 46°16' W 001°47'2 3.8
2017-May-13 11:30N 46°18' W 001°49'0 0.7
2017-May-13 11:00N 46°18' W 001°49'3 4.9
2017-May-13 10:28N 46°15' W 001°48'3 7.1
2017-May-13 10:00N 46°18' W 001°50'0 0.9
2017-May-13 09:30N 46°18' W 001°50'1 1.7
2017-May-13 08:58N 46°19' W 001°50'1 1.7
2017-May-13 08:26N 46°19' W 001°51'1 1.6
2017-May-13 08:00N 46°20' W 001°51'1 1.9
2017-May-13 07:28N 46°21' W 001°52'1 1.8
2017-May-13 07:00N 46°22' W 001°52'1 2.2
2017-May-13 06:30N 46°21' W 001°51'1 2.1
2017-May-13 06:00N 46°20' W 001°51'1 1.6
2017-May-13 05:28N 46°19' W 001°50'1 1.7
2017-May-13 04:58N 46°18' W 001°50'1 1.7
2017-May-13 04:30N 46°18' W 001°49'0 0.6
2017-May-13 04:00N 46°18' W 001°49'1 1.5
2017-May-13 03:31N 46°19' W 001°49'1 1.6
2017-May-13 03:00N 46°19' W 001°50'1 1.7
2017-May-13 02:30N 46°20' W 001°50'1 2.2
2017-May-13 02:00N 46°21' W 001°51'1 2.2
2017-May-13 01:30N 46°22' W 001°51'4 7.9
2017-May-13 01:00N 46°26' W 001°49'4 7.7
2017-May-13 00:31N 46°29' W 001°47'1 1.2
2017-May-12 23:59N 46°30' W 001°47'0 0.0
2017-May-12 23:29N 46°30' W 001°47'0 0.0
2017-May-12 22:59N 46°30' W 001°47'0 0.0
2017-May-12 22:29N 46°30' W 001°47'0 0.0
2017-May-12 21:59N 46°30' W 001°47'0 0.0
2017-May-12 21:29N 46°30' W 001°47'0 0.0
2017-May-12 20:59N 46°30' W 001°47'0 0.0
2017-May-12 20:29N 46°30' W 001°47'0 0.0
2017-May-12 19:59N 46°30' W 001°47'  
Track history (hours):
 
Tides and Currents Weather Stations Pressure Air Temp Water Temp Dewpoint Dewpoint Depression Visibility Wind Speed Wind Dir Waves Ship Positions

F/V Fleur Des Vagues

Last reported at 2017-May-22 19:30 UTC. Time now 2017-May-22 19:33 UTC.
Position N 46°30' W 001°47'.

Length 16 m.

Type: Fishing. MMSI: 227893000.

Date/timePositionNaut miles runAvg speedWind from/ knotsBaromVisibWave heightAir tempDewpointWater temp
2017-May-22 19:30N 46°30' W 001°47'0 0.0
2017-May-22 18:59N 46°30' W 001°47'0 0.0
2017-May-22 18:29N 46°30' W 001°47'0 0.0
2017-May-22 17:59N 46°30' W 001°47'0 0.0
2017-May-22 17:30N 46°30' W 001°47'0 0.0
2017-May-22 16:59N 46°30' W 001°47'0 0.0
2017-May-22 16:29N 46°30' W 001°47'0 0.0
2017-May-22 16:00N 46°30' W 001°47'0 0.0
2017-May-22 15:30N 46°30' W 001°47'0 0.0
2017-May-22 15:00N 46°30' W 001°47'0 0.0
2017-May-22 13:59N 46°30' W 001°47'0 0.0
2017-May-22 13:30N 46°30' W 001°47'0 0.0
2017-May-22 13:00N 46°30' W 001°47'0 0.0
2017-May-22 12:30N 46°30' W 001°47'0 0.0
2017-May-22 11:59N 46°30' W 001°47'1 1.8
2017-May-22 11:30N 46°29' W 001°47'4 8.7
2017-May-22 11:00N 46°26' W 001°51'4 9.0
2017-May-22 10:30N 46°23' W 001°56'3 5.3
2017-May-22 10:00N 46°24' W 001°60'3 5.9
2017-May-22 09:30N 46°21' W 001°59'4 8.1
2017-May-22 09:00N 46°24' W 002°01'2 4.5
2017-May-22 08:30N 46°23' W 001°59'3 6.7
2017-May-22 08:00N 46°20' W 001°56'1 2.1
2017-May-22 07:30N 46°21' W 001°54'1 2.2
2017-May-22 06:58N 46°21' W 001°53'1 1.2
2017-May-22 06:30N 46°21' W 001°53'1 2.4
2017-May-22 06:01N 46°20' W 001°54'2 3.3
2017-May-22 05:31N 46°19' W 001°53'3 6.3
2017-May-22 05:00N 46°17' W 001°49'0 0.5
2017-May-22 04:30N 46°17' W 001°48'0 0.4
2017-May-22 03:59N 46°17' W 001°48'0 0.2
2017-May-22 03:30N 46°17' W 001°48'0 0.4
2017-May-22 03:00N 46°17' W 001°48'0 0.7
2017-May-22 02:31N 46°17' W 001°47'0 0.4
2017-May-22 01:58N 46°17' W 001°47'1 1.4
2017-May-22 01:30N 46°18' W 001°48'4 7.8
2017-May-22 01:01N 46°22' W 001°47'4 8.7
2017-May-22 00:30N 46°26' W 001°47'4 8.1
2017-May-22 00:01N 46°30' W 001°48'0 0.6
2017-May-21 23:30N 46°30' W 001°47'0 0.0
2017-May-21 23:00N 46°30' W 001°47'0 0.0
2017-May-21 22:30N 46°30' W 001°47'0 0.0
2017-May-21 22:00N 46°30' W 001°47'0 0.0
2017-May-21 21:30N 46°30' W 001°47'0 0.0
2017-May-21 21:00N 46°30' W 001°47'0 0.0
2017-May-21 20:30N 46°30' W 001°47'0 0.0
2017-May-21 20:00N 46°30' W 001°47'0 0.0
2017-May-21 19:30N 46°30' W 001°47'0 0.0
2017-May-21 19:00N 46°30' W 001°47'0 0.0
2017-May-21 18:30N 46°30' W 001°47'0 0.0
2017-May-21 18:00N 46°30' W 001°47'0 0.0
2017-May-21 17:30N 46°30' W 001°47'0 0.0
2017-May-21 17:00N 46°30' W 001°47'0 0.0
2017-May-21 16:30N 46°30' W 001°47'0 0.0
2017-May-21 16:00N 46°30' W 001°47'0 0.0
2017-May-21 15:30N 46°30' W 001°47'0 0.0
2017-May-21 15:00N 46°30' W 001°47'0 0.0
2017-May-21 14:30N 46°30' W 001°47'0 0.0
2017-May-21 13:30N 46°30' W 001°47'0 0.0
2017-May-21 13:00N 46°30' W 001°47'2 4.3
2017-May-21 12:30N 46°28' W 001°48'4 8.8
2017-May-21 12:00N 46°24' W 001°51'4 8.1
2017-May-21 11:30N 46°21' W 001°54'2 3.6
2017-May-21 11:00N 46°21' W 001°52'4 8.8
2017-May-21 10:30N 46°17' W 001°49'1 1.7
2017-May-21 10:00N 46°17' W 001°48'1 1.4
2017-May-21 09:30N 46°18' W 001°48'1 1.2
2017-May-21 08:59N 46°17' W 001°48'0 0.5
2017-May-21 08:28N 46°17' W 001°48'0 0.8
2017-May-21 08:01N 46°17' W 001°49'0 0.2
2017-May-21 07:25N 46°17' W 001°49'0 0.7
2017-May-21 07:00N 46°17' W 001°49'0 0.4
2017-May-21 06:29N 46°17' W 001°49'0 0.3
2017-May-21 05:56N 46°17' W 001°49'0 0.2
2017-May-21 05:29N 46°17' W 001°49'1 2.2
2017-May-21 04:58N 46°17' W 001°48'1 1.3
2017-May-21 04:30N 46°17' W 001°47'1 1.3
2017-May-21 04:00N 46°17' W 001°48'1 1.2
2017-May-21 03:28N 46°17' W 001°47'1 1.3
2017-May-21 03:00N 46°17' W 001°47'0 0.6
2017-May-21 02:30N 46°17' W 001°47'0 0.3
2017-May-21 02:00N 46°17' W 001°47'1 1.2
2017-May-21 01:30N 46°18' W 001°47'4 8.0
2017-May-21 01:00N 46°22' W 001°47'4 8.7
2017-May-21 00:30N 46°26' W 001°47'4 7.3
2017-May-21 00:00N 46°30' W 001°47'0 0.2
2017-May-20 23:29N 46°30' W 001°47'0 0.0
2017-May-20 22:59N 46°30' W 001°47'0 0.0
2017-May-20 22:29N 46°30' W 001°47'0 0.0
2017-May-20 21:59N 46°30' W 001°47'0 0.0
2017-May-20 21:29N 46°30' W 001°47'0 0.0
2017-May-20 20:59N 46°30' W 001°47'0 0.0
2017-May-20 20:29N 46°30' W 001°47'0 0.0
2017-May-20 19:59N 46°30' W 001°47'0 0.0
2017-May-20 19:29N 46°30' W 001°47'0 0.0
2017-May-20 18:59N 46°30' W 001°47'0 0.0
2017-May-20 18:29N 46°30' W 001°47'0 0.0
2017-May-20 17:59N 46°30' W 001°47'0 0.0
2017-May-20 17:29N 46°30' W 001°47'0 0.0
2017-May-20 16:59N 46°30' W 001°47'0 0.0
2017-May-20 16:29N 46°30' W 001°47'0 0.0
2017-May-20 15:59N 46°30' W 001°47'0 0.0
2017-May-20 15:29N 46°30' W 001°47'0 0.0
2017-May-20 14:59N 46°30' W 001°47'0 0.0
2017-May-20 14:29N 46°30' W 001°47'0 0.0
2017-May-20 13:29N 46°30' W 001°47'0 0.0
2017-May-20 12:59N 46°30' W 001°47'0 0.0
2017-May-20 12:29N 46°30' W 001°47'0 0.0
2017-May-20 11:59N 46°30' W 001°47'0 0.0
2017-May-20 11:29N 46°30' W 001°47'1 1.7
2017-May-20 11:00N 46°29' W 001°47'4 8.4
2017-May-20 10:31N 46°25' W 001°47'4 8.3
2017-May-20 10:00N 46°21' W 001°48'4 7.2
2017-May-20 09:30N 46°17' W 001°48'1 1.6
2017-May-20 09:00N 46°17' W 001°49'0 0.3
2017-May-20 08:31N 46°17' W 001°49'0 0.2
2017-May-20 08:01N 46°17' W 001°49'0 0.8
2017-May-20 07:30N 46°17' W 001°49'0 0.7
2017-May-20 06:59N 46°17' W 001°48'0 0.7
2017-May-20 06:30N 46°17' W 001°48'0 0.2
2017-May-20 05:58N 46°17' W 001°48'0 1.0
2017-May-20 05:30N 46°18' W 001°48'1 1.8
2017-May-20 05:00N 46°17' W 001°47'1 1.1
2017-May-20 04:29N 46°17' W 001°48'0 0.8
2017-May-20 04:01N 46°17' W 001°48'1 1.1
2017-May-20 03:30N 46°17' W 001°47'1 1.6
2017-May-20 03:00N 46°18' W 001°48'1 1.3
2017-May-20 02:30N 46°17' W 001°47'0 0.2
2017-May-20 02:00N 46°17' W 001°47'1 1.8
2017-May-20 01:30N 46°18' W 001°48'4 8.5
2017-May-20 01:00N 46°22' W 001°47'4 8.7
2017-May-20 00:30N 46°27' W 001°47'3 6.3
2017-May-19 23:59N 46°30' W 001°47'0 0.0
2017-May-19 23:29N 46°30' W 001°47'0 0.0
2017-May-19 22:59N 46°30' W 001°47'0 0.0
2017-May-19 22:29N 46°30' W 001°47'0 0.0
2017-May-19 21:59N 46°30' W 001°47'0 0.0
2017-May-19 21:29N 46°30' W 001°47'0 0.0
2017-May-19 20:59N 46°30' W 001°47'0 0.0
2017-May-19 20:29N 46°30' W 001°47'0 0.0
2017-May-19 19:59N 46°30' W 001°47'0 0.0
2017-May-19 19:29N 46°30' W 001°47'0 0.0
2017-May-19 18:59N 46°30' W 001°47'0 0.0
2017-May-19 18:29N 46°30' W 001°47'0 0.0
2017-May-19 17:59N 46°30' W 001°47'0 0.0
2017-May-19 17:29N 46°30' W 001°47'0 0.0
2017-May-19 16:59N 46°30' W 001°47'0 0.0
2017-May-19 16:29N 46°30' W 001°47'0 0.0
2017-May-19 15:59N 46°30' W 001°47'0 0.0
2017-May-19 15:29N 46°30' W 001°47'0 0.0
2017-May-19 14:59N 46°30' W 001°47'0 0.0
2017-May-19 13:59N 46°30' W 001°47'0 0.0
2017-May-19 13:29N 46°30' W 001°47'0 0.0
2017-May-19 12:59N 46°30' W 001°47'0 0.0
2017-May-19 12:29N 46°30' W 001°47'0 0.4
2017-May-19 11:58N 46°30' W 001°47'1 2.8
2017-May-19 11:30N 46°29' W 001°47'4 8.3
2017-May-19 11:00N 46°25' W 001°48'4 8.1
2017-May-19 10:30N 46°20' W 001°49'3 6.4
2017-May-19 10:01N 46°17' W 001°49'1 2.4
2017-May-19 09:30N 46°17' W 001°48'0 0.9
2017-May-19 09:01N 46°17' W 001°47'2 4.3
2017-May-19 08:30N 46°17' W 001°50'1 1.9
2017-May-19 08:01N 46°17' W 001°49'1 1.5
2017-May-19 07:29N 46°17' W 001°48'1 1.2
2017-May-19 07:00N 46°17' W 001°47'2 4.2
2017-May-19 06:30N 46°17' W 001°50'1 1.6
2017-May-19 06:00N 46°17' W 001°49'13 1.4
2017-May-18 21:00N 46°30' W 001°47'0 0.0
2017-May-18 20:31N 46°30' W 001°47'0 0.0
2017-May-18 20:00N 46°30' W 001°47'0 0.0
2017-May-18 19:30N 46°30' W 001°47'0 0.0
2017-May-18 19:00N 46°30' W 001°47'0 0.0
2017-May-18 18:30N 46°30' W 001°47'0 0.0
2017-May-18 18:00N 46°30' W 001°47'0 0.0
2017-May-18 17:31N 46°30' W 001°47'0 0.0
2017-May-18 16:54N 46°30' W 001°47'0 0.0
2017-May-18 16:30N 46°30' W 001°47'0 0.0
2017-May-18 16:00N 46°30' W 001°47'0 0.0
2017-May-18 15:30N 46°30' W 001°47'0 0.0
2017-May-18 15:00N 46°30' W 001°47'0 0.0
2017-May-18 14:00N 46°30' W 001°47'0 0.0
2017-May-18 13:30N 46°30' W 001°47'9 0.9
2017-May-18 03:19N 46°21' W 001°47'3 8.5
2017-May-18 03:00N 46°23' W 001°47'4 8.5
2017-May-18 02:30N 46°28' W 001°47'2 4.6
2017-May-18 01:59N 46°30' W 001°47'0 0.0
2017-May-18 01:29N 46°30' W 001°47'0 0.0
2017-May-18 00:59N 46°30' W 001°47'0 0.0
2017-May-18 00:29N 46°30' W 001°47'0 0.0
2017-May-17 23:59N 46°30' W 001°47'0 0.0
2017-May-17 23:29N 46°30' W 001°47'0 0.0
2017-May-17 22:59N 46°30' W 001°47'0 0.0
2017-May-17 22:29N 46°30' W 001°47'0 0.0
2017-May-17 21:59N 46°30' W 001°47'0 0.0
2017-May-17 21:29N 46°30' W 001°47'0 0.0
2017-May-17 20:59N 46°30' W 001°47'0 0.0
2017-May-17 20:29N 46°30' W 001°47'0 0.0
2017-May-17 19:59N 46°30' W 001°47'0 0.0
2017-May-17 19:29N 46°30' W 001°47'0 0.0
2017-May-17 18:59N 46°30' W 001°47'0 0.0
2017-May-17 18:23N 46°30' W 001°47'0 0.0
2017-May-17 17:59N 46°30' W 001°47'0 0.0
2017-May-17 17:29N 46°30' W 001°47'0 0.0
2017-May-17 16:59N 46°30' W 001°47'0 0.0
2017-May-17 16:29N 46°30' W 001°47'0 0.0
2017-May-17 15:59N 46°30' W 001°47'0 0.4
2017-May-17 15:30N 46°30' W 001°47'4 7.2
2017-May-17 15:00N 46°26' W 001°47'8 8.0
2017-May-17 14:00N 46°18' W 001°47'3 5.5
2017-May-17 13:30N 46°17' W 001°51'2 3.6
2017-May-17 13:00N 46°17' W 001°48'0 0.4
2017-May-17 12:30N 46°17' W 001°48'0 0.5
2017-May-17 12:00N 46°17' W 001°48'1 1.1
2017-May-17 11:29N 46°17' W 001°48'0 0.4
2017-May-17 10:59N 46°17' W 001°47'1 1.2
2017-May-17 10:29N 46°17' W 001°48'0 1.0
2017-May-17 10:00N 46°18' W 001°48'1 1.2
2017-May-17 09:30N 46°17' W 001°47'1 1.1
2017-May-17 09:00N 46°17' W 001°47'0 0.4
2017-May-17 08:30N 46°17' W 001°47'1 1.1
2017-May-17 08:00N 46°17' W 001°47'1 1.2
2017-May-17 07:30N 46°18' W 001°48'1 1.2
2017-May-17 07:00N 46°18' W 001°48'0 0.2
2017-May-17 06:30N 46°18' W 001°48'1 1.0
2017-May-17 05:59N 46°17' W 001°48'1 1.3
2017-May-17 05:29N 46°17' W 001°48'1 1.1
2017-May-17 04:59N 46°17' W 001°48'0 0.8
2017-May-17 04:29N 46°17' W 001°49'1 1.2
2017-May-17 03:59N 46°17' W 001°48'0 0.7
2017-May-17 03:29N 46°16' W 001°48'1 1.3
2017-May-17 02:59N 46°17' W 001°49'0 0.6
2017-May-17 02:29N 46°17' W 001°49'0 0.3
2017-May-17 01:59N 46°17' W 001°49'1 1.4
2017-May-17 01:30N 46°18' W 001°49'4 8.0
2017-May-17 01:00N 46°22' W 001°48'4 8.8
2017-May-17 00:30N 46°26' W 001°48'4 7.8
2017-May-17 00:00N 46°30' W 001°47'0 0.5
2017-May-16 23:29N 46°30' W 001°47'0 0.0
2017-May-16 22:59N 46°30' W 001°47'0 0.0
2017-May-16 22:29N 46°30' W 001°47'0 0.0
2017-May-16 21:59N 46°30' W 001°47'0 0.0
2017-May-16 21:29N 46°30' W 001°47'0 0.0
2017-May-16 20:59N 46°30' W 001°47'0 0.0
2017-May-16 20:29N 46°30' W 001°47'0 0.0
2017-May-16 19:59N 46°30' W 001°47'0 0.0
2017-May-16 19:29N 46°30' W 001°47'0 0.0
2017-May-16 18:59N 46°30' W 001°47'0 0.0
2017-May-16 18:29N 46°30' W 001°47'0 0.0
2017-May-16 17:59N 46°30' W 001°47'0 0.0
2017-May-16 17:29N 46°30' W 001°47'0 0.0
2017-May-16 16:59N 46°30' W 001°47'0 0.0
2017-May-16 16:29N 46°30' W 001°47'0 0.0
2017-May-16 15:59N 46°30' W 001°47'0 0.0
2017-May-16 15:29N 46°30' W 001°47'0 0.0
2017-May-16 14:59N 46°30' W 001°47'0 0.0
2017-May-16 14:29N 46°30' W 001°47'2 1.7
2017-May-16 13:30N 46°28' W 001°47'5 9.1
2017-May-16 13:00N 46°24' W 001°48'4 9.0
2017-May-16 12:30N 46°19' W 001°49'3 5.3
2017-May-16 12:00N 46°17' W 001°48'1 1.2
2017-May-16 11:30N 46°17' W 001°48'1 1.1
2017-May-16 11:00N 46°17' W 001°48'1 1.6
2017-May-16 10:30N 46°18' W 001°48'0 0.9
2017-May-16 10:00N 46°17' W 001°48'1 1.9
2017-May-16 09:30N 46°18' W 001°49'0 0.8
2017-May-16 09:00N 46°18' W 001°48'1 1.4
2017-May-16 08:30N 46°17' W 001°48'0 0.3
2017-May-16 08:00N 46°17' W 001°48'1 1.9
2017-May-16 07:30N 46°18' W 001°49'0 0.9
2017-May-16 06:59N 46°18' W 001°49'1 1.7
2017-May-16 06:30N 46°18' W 001°49'0 0.9
2017-May-16 06:00N 46°17' W 001°48'0 0.7
2017-May-16 05:31N 46°18' W 001°49'1 1.9
2017-May-16 05:00N 46°18' W 001°49'1 2.1
2017-May-16 04:30N 46°17' W 001°49'0 0.3
2017-May-16 03:58N 46°17' W 001°49'1 1.7
2017-May-16 03:28N 46°18' W 001°49'0 0.2
2017-May-16 03:00N 46°18' W 001°49'2 3.4
2017-May-16 02:30N 46°17' W 001°47'1 1.6
2017-May-16 02:01N 46°18' W 001°48'1 1.8
2017-May-16 01:31N 46°19' W 001°48'3 6.2
2017-May-16 01:00N 46°22' W 001°48'4 8.5
2017-May-16 00:30N 46°26' W 001°48'4 7.8
2017-May-16 00:00N 46°30' W 001°48'0 0.5
2017-May-15 23:29N 46°30' W 001°47'0 0.0
2017-May-15 22:59N 46°30' W 001°47'0 0.0
2017-May-15 22:29N 46°30' W 001°47'0 0.0
2017-May-15 21:59N 46°30' W 001°47'0 0.0
2017-May-15 21:29N 46°30' W 001°47'0 0.0
2017-May-15 20:56N 46°30' W 001°47'0 0.0
2017-May-15 20:29N 46°30' W 001°47'0 0.0
2017-May-15 19:59N 46°30' W 001°47'0 0.0
2017-May-15 19:29N 46°30' W 001°47'0 0.0
2017-May-15 18:59N 46°30' W 001°47'0 0.0
2017-May-15 18:29N 46°30' W 001°47'0 0.0
2017-May-15 17:59N 46°30' W 001°47'0 0.0
2017-May-15 17:29N 46°30' W 001°47'0 0.0
2017-May-15 16:59N 46°30' W 001°47'0 0.0
2017-May-15 16:29N 46°30' W 001°47'0 0.0
2017-May-15 15:59N 46°30' W 001°47'0 0.0
2017-May-15 15:29N 46°30' W 001°47'0 0.0
2017-May-15 14:59N 46°30' W 001°47'0 0.0
2017-May-15 13:59N 46°30' W 001°47'0 0.0
2017-May-15 13:28N 46°30' W 001°47'0 0.8
2017-May-15 13:01N 46°30' W 001°48'4 8.5
2017-May-15 12:31N 46°26' W 001°48'5 9.2
2017-May-15 12:01N 46°21' W 001°49'4 8.3
2017-May-15 11:30N 46°17' W 001°49'1 1.1
2017-May-15 11:00N 46°17' W 001°48'0 0.5
2017-May-15 10:30N 46°18' W 001°48'0 0.6
2017-May-15 10:00N 46°18' W 001°48'1 2.2
2017-May-15 09:30N 46°18' W 001°49'1 1.4
2017-May-15 08:59N 46°18' W 001°50'1 1.5
2017-May-15 08:29N 46°19' W 001°50'0 0.4
2017-May-15 07:59N 46°19' W 001°50'1 2.0
2017-May-15 07:30N 46°18' W 001°50'1 1.9
2017-May-15 07:00N 46°17' W 001°49'0 0.6
2017-May-15 06:30N 46°17' W 001°49'1 2.3
2017-May-15 06:01N 46°18' W 001°49'1 1.4
2017-May-15 05:30N 46°19' W 001°50'3 5.2
2017-May-15 05:00N 46°17' W 001°48'1 1.7
2017-May-15 04:30N 46°17' W 001°49'1 1.5
2017-May-15 04:00N 46°18' W 001°49'1 1.8
2017-May-15 03:30N 46°19' W 001°50'1 1.7
2017-May-15 02:58N 46°18' W 001°49'1 1.4
2017-May-15 02:29N 46°18' W 001°48'1 2.3
2017-May-15 02:00N 46°19' W 001°49'1 2.0
2017-May-15 01:29N 46°19' W 001°50'3 6.1
2017-May-15 01:00N 46°22' W 001°49'4 8.2
2017-May-15 00:30N 46°26' W 001°48'4 7.2
2017-May-15 00:00N 46°30' W 001°47'0 0.3
2017-May-14 23:28N 46°30' W 001°47'0 0.0
2017-May-14 22:58N 46°30' W 001°47'0 0.0
2017-May-14 22:28N 46°30' W 001°47'0 0.0
2017-May-14 21:58N 46°30' W 001°47'0 0.0
2017-May-14 21:28N 46°30' W 001°47'0 0.0
2017-May-14 20:58N 46°30' W 001°47'0 0.0
2017-May-14 20:28N 46°30' W 001°47'0 0.0
2017-May-14 19:58N 46°30' W 001°47'0 0.0
2017-May-14 19:28N 46°30' W 001°47'0 0.0
2017-May-14 18:58N 46°30' W 001°47'0 0.0
2017-May-14 18:28N 46°30' W 001°47'0 0.0
2017-May-14 17:58N 46°30' W 001°47'0 0.0
2017-May-14 17:28N 46°30' W 001°47'0 0.0
2017-May-14 16:58N 46°30' W 001°47'0 0.0
2017-May-14 16:28N 46°30' W 001°47'0 0.0
2017-May-14 15:58N 46°30' W 001°47'0 0.0
2017-May-14 15:28N 46°30' W 001°47'0 0.0
2017-May-14 14:58N 46°30' W 001°47'0 0.0
2017-May-14 14:28N 46°30' W 001°47'0 0.0
2017-May-14 13:30N 46°30' W 001°47'4 7.6
2017-May-14 13:00N 46°26' W 001°48'5 9.1
2017-May-14 12:30N 46°22' W 001°49'4 8.1
2017-May-14 12:00N 46°18' W 001°48'0 0.8
2017-May-14 11:30N 46°17' W 001°49'2 3.8
2017-May-14 11:00N 46°19' W 001°50'2 3.0
2017-May-14 10:30N 46°18' W 001°49'2 3.5
2017-May-14 10:00N 46°19' W 001°50'1 2.1
2017-May-14 09:30N 46°18' W 001°50'1 2.2
2017-May-14 09:00N 46°17' W 001°49'1 2.3
2017-May-14 08:30N 46°16' W 001°48'1 2.1
2017-May-14 08:00N 46°15' W 001°48'0 0.4
2017-May-14 07:30N 46°15' W 001°48'1 1.5
2017-May-14 06:59N 46°16' W 001°48'1 1.6
2017-May-14 06:23N 46°17' W 001°49'1 1.3
2017-May-14 06:00N 46°17' W 001°49'1 1.5
2017-May-14 05:30N 46°18' W 001°50'1 1.6
2017-May-14 04:59N 46°19' W 001°50'1 1.2
2017-May-14 04:30N 46°19' W 001°50'3 6.8
2017-May-14 04:00N 46°16' W 001°48'0 0.9
2017-May-14 03:30N 46°16' W 001°48'1 2.1
2017-May-14 03:00N 46°17' W 001°48'1 1.9
2017-May-14 02:30N 46°18' W 001°49'1 1.9
2017-May-14 02:00N 46°18' W 001°49'1 1.7
2017-May-14 01:30N 46°19' W 001°50'4 7.6
2017-May-14 01:00N 46°23' W 001°49'4 8.0
2017-May-14 00:30N 46°27' W 001°48'3 6.1
2017-May-13 23:59N 46°30' W 001°47'0 0.0
2017-May-13 23:29N 46°30' W 001°47'0 0.0
2017-May-13 22:59N 46°30' W 001°47'0 0.0
2017-May-13 22:29N 46°30' W 001°47'0 0.0
2017-May-13 21:59N 46°30' W 001°47'0 0.0
2017-May-13 21:29N 46°30' W 001°47'0 0.0
2017-May-13 20:59N 46°30' W 001°47'0 0.0
2017-May-13 20:29N 46°30' W 001°47'0 0.0
2017-May-13 19:59N 46°30' W 001°47'0 0.0
2017-May-13 19:29N 46°30' W 001°47'0 0.0
2017-May-13 18:59N 46°30' W 001°47'0 0.0
2017-May-13 18:29N 46°30' W 001°47'0 0.0
2017-May-13 17:59N 46°30' W 001°47'0 0.0
2017-May-13 17:29N 46°30' W 001°47'0 0.0
2017-May-13 16:59N 46°30' W 001°47'0 0.0
2017-May-13 16:29N 46°30' W 001°47'0 0.0
2017-May-13 15:59N 46°30' W 001°47'0 0.0
2017-May-13 15:29N 46°30' W 001°47'0 0.0
2017-May-13 14:59N 46°30' W 001°47'0 0.0
2017-May-13 14:29N 46°30' W 001°47'0 0.4
2017-May-13 13:30N 46°30' W 001°48'4 8.6
2017-May-13 13:00N 46°25' W 001°47'5 9.1
2017-May-13 12:30N 46°21' W 001°47'5 9.3
2017-May-13 12:00N 46°16' W 001°47'2 3.8
2017-May-13 11:30N 46°18' W 001°49'0 0.7
2017-May-13 11:00N 46°18' W 001°49'3 4.9
2017-May-13 10:28N 46°15' W 001°48'3 7.1
2017-May-13 10:00N 46°18' W 001°50'0 0.9
2017-May-13 09:30N 46°18' W 001°50'1 1.7
2017-May-13 08:58N 46°19' W 001°50'1 1.7
2017-May-13 08:26N 46°19' W 001°51'1 1.6
2017-May-13 08:00N 46°20' W 001°51'1 1.9
2017-May-13 07:28N 46°21' W 001°52'1 1.8
2017-May-13 07:00N 46°22' W 001°52'1 2.2
2017-May-13 06:30N 46°21' W 001°51'1 2.1
2017-May-13 06:00N 46°20' W 001°51'1 1.6
2017-May-13 05:28N 46°19' W 001°50'1 1.7
2017-May-13 04:58N 46°18' W 001°50'1 1.7
2017-May-13 04:30N 46°18' W 001°49'0 0.6
2017-May-13 04:00N 46°18' W 001°49'1 1.5
2017-May-13 03:31N 46°19' W 001°49'1 1.6
2017-May-13 03:00N 46°19' W 001°50'1 1.7
2017-May-13 02:30N 46°20' W 001°50'1 2.2
2017-May-13 02:00N 46°21' W 001°51'1 2.2
2017-May-13 01:30N 46°22' W 001°51'4 7.9
2017-May-13 01:00N 46°26' W 001°49'4 7.7
2017-May-13 00:31N 46°29' W 001°47'1 1.2
2017-May-12 23:59N 46°30' W 001°47'0 0.0
2017-May-12 23:29N 46°30' W 001°47'0 0.0
2017-May-12 22:59N 46°30' W 001°47'0 0.0
2017-May-12 22:29N 46°30' W 001°47'0 0.0
2017-May-12 21:59N 46°30' W 001°47'0 0.0
2017-May-12 21:29N 46°30' W 001°47'0 0.0
2017-May-12 20:59N 46°30' W 001°47'0 0.0
2017-May-12 20:29N 46°30' W 001°47'0 0.0
2017-May-12 19:59N 46°30' W 001°47'  

Dump ship's entire track history